Bingham Farms, Michigan
Current Conditions -  °F | °C
As of 11:35 PM on Saturday 20 Dec 2014 (Local Time) from KVLL Reporting Station
Overcast Overcast  
Wind Chill: 32°   Ceiling: 2600
Heat Index: 32°   Visibility: 10mi
Dew Point: 21°   Wind: 0mph
Humidity: 63%   Direction: NA
Pressure: 30.29"   Gusts: NA
Location:  42.5206°N, 83.2664°W
Report Text: KVLL 210435Z AUTO 00000KT 10SM OVC026 00/M06 A3029 RMK AO2 T00001062
Loading
Personal Weather Stations






























Interactive Weather Map New forecast layout! Learn more

10-Day Weather Forecast

Advertisements
Track Severe Weather on mobile